Wardeh — ODUS — position and weather

sailwx.info

Track history (hours):
 
Tides and Currents Weather Stations Pressure Air Temp Water Temp Dewpoint Dewpoint Depression Visibility Wind Speed Wind Dir Waves Ship Positions

Wardeh

Last reported at 2015-Mar-10 23:25 UTC. Time now 2015-Mar-31 23:51 UTC.
Position N 33°55' E 034°40'.
Warning: this ship's position is 21 days out of date.

; draft 6.5 m.

Type: Cargo ship. MMSI: 450522000.

Date/timePositionNaut miles runAvg speedWind from/ knotsBaromVisibWave heightAir tempDewpointWater temp
2015-Mar-10 23:25N 33°55' E 034°40'2 0.8
2015-Mar-10 21:25N 33°57' E 034°39'2 0.4
2015-Mar-10 16:31N 33°58' E 034°37'2 0.8
2015-Mar-10 14:33N 33°58' E 034°35'8 1.1
2015-Mar-10 07:28N 33°53' E 034°29'3 1.1
2015-Mar-10 04:28N 33°56' E 034°27'1 1.3
2015-Mar-10 03:33N 33°57' E 034°28'5 4.5
2015-Mar-10 02:32N 33°57' E 034°34'  
2015-Mar-06 13:24N 33°54' E 035°31'0 0.0
2015-Mar-06 12:33N 33°54' E 035°31'  
2015-Mar-02 14:24N 36°39' E 014°29'1213.8
2015-Mar-02 13:33N 36°41' E 014°14'1413.9
2015-Mar-02 12:34N 36°45' E 013°58'1413.9
2015-Mar-02 11:32N 36°49' E 013°41'  
Track history (hours):
 
Tides and Currents Weather Stations Pressure Air Temp Water Temp Dewpoint Dewpoint Depression Visibility Wind Speed Wind Dir Waves Ship Positions

Wardeh

Last reported at 2015-Mar-10 23:25 UTC. Time now 2015-Mar-31 23:51 UTC.
Position N 33°55' E 034°40'.
Warning: this ship's position is 21 days out of date.

; draft 6.5 m.

Type: Cargo ship. MMSI: 450522000.

Date/timePositionNaut miles runAvg speedWind from/ knotsBaromVisibWave heightAir tempDewpointWater temp
2015-Mar-10 23:25N 33°55' E 034°40'2 0.8
2015-Mar-10 21:25N 33°57' E 034°39'2 0.4
2015-Mar-10 16:31N 33°58' E 034°37'2 0.8
2015-Mar-10 14:33N 33°58' E 034°35'8 1.1
2015-Mar-10 07:28N 33°53' E 034°29'3 1.1
2015-Mar-10 04:28N 33°56' E 034°27'1 1.3
2015-Mar-10 03:33N 33°57' E 034°28'5 4.5
2015-Mar-10 02:32N 33°57' E 034°34'  
2015-Mar-06 13:24N 33°54' E 035°31'0 0.0
2015-Mar-06 12:33N 33°54' E 035°31'  
2015-Mar-02 14:24N 36°39' E 014°29'1213.8
2015-Mar-02 13:33N 36°41' E 014°14'1413.9
2015-Mar-02 12:34N 36°45' E 013°58'1413.9
2015-Mar-02 11:32N 36°49' E 013°41'  

Dump ship's entire track history